Time;durP1;ratioP1;P1;durP2;ratioP2;P2;SDS_P1;SDS_P2;PMS_P1;PMS_P2;Temp;Humidity;BMP_temperature;BMP_pressure;BME280_temperature;BME280_humidity;BME280_pressure;Samples;Min_cycle;Max_cycle;Signal;HPM_P1;HPM_P2
2021/07/04 00:01:38;;;;;;;0.40;0.40;;;;;;;18.45;68.09;98420.03;5114284;28;20020;-87
2021/07/04 00:04:04;;;;;;;1.98;0.50;;;;;;;18.32;67.91;98388.94;5114329;28;20040;-86
2021/07/04 00:06:30;;;;;;;0.30;0.30;;;;;;;18.49;67.89;98409.41;5113953;28;20061;-87
2021/07/04 00:08:55;;;;;;;0.30;0.30;;;;;;;18.51;67.41;98426.44;5113966;28;20165;-87
2021/07/04 00:11:21;;;;;;;1.17;0.82;;;;;;;18.50;67.83;98408.16;5113969;28;20027;-87
2021/07/04 00:13:46;;;;;;;0.32;0.32;;;;;;;18.25;68.20;98378.19;5113932;28;20547;-87
2021/07/04 00:16:12;;;;;;;2.55;0.77;;;;;;;18.37;68.83;98416.19;5114312;28;20030;-87
2021/07/04 00:18:37;;;;;;;0.52;0.52;;;;;;;18.19;69.55;98396.97;5113895;28;20042;-87
2021/07/04 00:21:07;;;;;;;0.50;0.50;;;;;;;18.20;70.08;98421.63;5113018;28;20110;-87
2021/07/04 00:23:33;;;;;;;0.93;0.93;;;;;;;18.23;69.71;98411.47;5114912;28;20402;-86
2021/07/04 00:25:58;;;;;;;0.65;0.65;;;;;;;17.81;69.71;98351.38;5113655;28;20024;-87
2021/07/04 00:28:24;;;;;;;0.80;0.80;;;;;;;17.94;69.91;98378.94;5113760;28;20027;-87
2021/07/04 00:30:54;;;;;;;0.98;0.98;;;;;;;18.07;70.21;98403.72;5113540;28;20505;-86
2021/07/04 00:33:20;;;;;;;0.65;0.65;;;;;;;18.14;70.30;98418.03;5113670;28;20038;-86
2021/07/04 00:35:45;;;;;;;0.95;0.95;;;;;;;17.99;69.29;98394.22;5113624;28;20023;-87
2021/07/04 00:38:11;;;;;;;0.98;0.40;;;;;;;17.97;69.11;98374.38;5113400;28;20039;-87
2021/07/04 00:40:37;;;;;;;1.38;1.27;;;;;;;18.06;68.85;98369.41;5113382;28;20034;-86
2021/07/04 00:43:04;;;;;;;0.82;0.82;;;;;;;17.96;68.62;98353.31;5113348;28;20028;-86
2021/07/04 00:45:30;;;;;;;1.17;1.00;;;;;;;18.29;68.33;98409.50;5113835;28;20110;-86
2021/07/04 00:47:56;;;;;;;1.27;1.17;;;;;;;18.39;68.23;98412.88;5113295;28;20516;-86
2021/07/04 00:50:27;;;;;;;2.42;2.25;;;;;;;17.95;68.88;98346.19;5113208;28;20035;-86
2021/07/04 00:52:54;;;;;;;0.20;0.20;;;;;;;18.16;69.00;98381.16;5113573;28;20024;-86
2021/07/04 00:55:20;;;;;;;0.52;0.52;;;;;;;18.14;71.59;98392.88;5114118;28;20024;-87
2021/07/04 00:57:46;;;;;;;0.45;0.45;;;;;;;18.19;69.61;98422.13;5113316;28;20426;-87
2021/07/04 01:00:14;;;;;;;0.25;0.25;;;;;;;18.00;69.32;98376.19;5113610;28;20047;-88
2021/07/04 01:02:40;;;;;;;0.50;0.50;;;;;;;18.08;70.57;98413.66;5113301;28;20063;-88
2021/07/04 01:05:34;;;;;;;0.43;0.43;;;;;;;17.99;70.25;98391.44;5113640;28;20191;-87
2021/07/04 01:08:02;;;;;;;0.77;0.77;;;;;;;17.93;72.60;98390.63;5109167;28;20039;-87
2021/07/04 01:10:29;;;;;;;0.45;0.45;;;;;;;17.96;73.73;98387.63;5112897;28;20050;-87
2021/07/04 01:12:57;;;;;;;1.10;1.10;;;;;;;17.75;74.48;98363.78;5112917;28;20043;-87
2021/07/04 01:15:25;;;;;;;0.40;0.40;;;;;;;17.70;72.87;98364.47;5112825;28;20364;-87
2021/07/04 01:17:53;;;;;;;1.25;0.50;;;;;;;17.83;71.74;98376.81;5113820;28;20027;-87
2021/07/04 01:20:20;;;;;;;;;;;;;;;17.89;72.43;98393.66;5114296;28;20095;-88
2021/07/04 01:23:03;;;;;;;0.55;0.55;;;;;;;17.79;71.85;98393.03;5113298;28;19907;-86
2021/07/04 01:25:30;;;;;;;0.43;0.35;;;;;;;17.58;71.98;98369.16;5112632;28;20483;-87
2021/07/04 01:27:58;;;;;;;0.87;0.57;;;;;;;17.76;71.71;98396.81;5112706;28;20048;-88
2021/07/04 01:30:24;;;;;;;0.50;0.50;;;;;;;17.72;72.19;98395.50;5112624;28;20055;-88
2021/07/04 01:32:50;;;;;;;0.50;0.47;;;;;;;17.63;72.25;98382.44;5112374;28;20031;-88
2021/07/04 01:35:16;;;;;;;0.70;0.70;;;;;;;17.48;71.99;98353.81;5113383;28;20039;-88
2021/07/04 01:37:42;;;;;;;0.10;0.10;;;;;;;17.40;73.11;98355.50;5112351;28;20052;-88
2021/07/04 01:40:09;;;;;;;0.38;0.38;;;;;;;17.21;73.10;98312.38;5112584;28;20026;-87
2021/07/04 01:42:34;;;;;;;0.20;0.20;;;;;;;17.33;73.13;98337.16;5112013;28;20027;-87
2021/07/04 01:45:01;;;;;;;0.55;0.55;;;;;;;17.45;74.30;98354.78;5112725;28;20539;-87
2021/07/04 01:47:26;;;;;;;0.65;0.65;;;;;;;17.49;72.95;98355.34;5112641;28;20038;-87
2021/07/04 01:49:52;;;;;;;1.95;1.45;;;;;;;17.47;73.43;98352.28;5112506;28;20554;-87
2021/07/04 01:52:17;;;;;;;0.88;0.88;;;;;;;17.58;72.35;98360.78;5112439;28;20027;-87
2021/07/04 01:54:43;;;;;;;0.50;0.50;;;;;;;17.39;73.42;98323.25;5112291;28;20030;-87
2021/07/04 01:57:11;;;;;;;0.52;0.52;;;;;;;17.55;73.16;98369.38;5113264;28;20030;-86
2021/07/04 01:59:45;;;;;;;0.32;0.32;;;;;;;17.67;71.19;98362.66;5112304;28;20016;-87
2021/07/04 02:02:11;;;;;;;2.95;0.65;;;;;;;17.59;71.05;98339.19;5112861;28;20032;-86
2021/07/04 02:04:40;;;;;;;1.40;1.30;;;;;;;17.74;71.05;98362.22;5112272;28;20023;-87
2021/07/04 02:07:06;;;;;;;1.08;1.08;;;;;;;17.70;71.58;98370.06;5112221;28;20031;-87
2021/07/04 02:09:32;;;;;;;0.40;0.40;;;;;;;17.59;72.02;98356.72;5112166;28;20035;-87
2021/07/04 02:11:58;;;;;;;0.63;0.60;;;;;;;17.41;73.72;98335.47;5112261;28;20024;-87
2021/07/04 02:14:29;;;;;;;0.60;0.60;;;;;;;17.42;74.73;98353.75;5112063;28;20026;-87
2021/07/04 02:16:54;;;;;;;1.45;1.13;;;;;;;17.43;75.78;98365.69;5112728;28;20100;-86
2021/07/04 02:19:20;;;;;;;0.70;0.70;;;;;;;17.40;74.60;98366.69;5112245;28;20110;-87
2021/07/04 02:21:45;;;;;;;0.45;0.45;;;;;;;17.12;74.65;98349.59;5112920;28;20035;-87
2021/07/04 02:24:10;;;;;;;0.40;0.40;;;;;;;17.19;73.59;98365.16;5112068;28;20024;-86
2021/07/04 02:26:36;;;;;;;1.50;0.98;;;;;;;17.30;73.62;98370.88;5111968;28;20032;-87
2021/07/04 02:29:02;;;;;;;0.60;0.52;;;;;;;17.26;72.79;98368.28;5112038;28;20028;-87
2021/07/04 02:31:27;;;;;;;1.10;1.10;;;;;;;17.34;73.00;98382.59;5112327;28;20023;-87
2021/07/04 02:33:52;;;;;;;0.30;0.30;;;;;;;17.32;73.56;98382.31;5112200;28;20028;-86
2021/07/04 02:36:20;;;;;;;0.25;0.25;;;;;;;17.32;72.43;98382.31;5111600;28;20054;-87
2021/07/04 02:38:45;;;;;;;0.60;0.60;;;;;;;16.95;73.55;98332.63;5112064;28;20119;-87
2021/07/04 02:41:11;;;;;;;1.35;1.35;;;;;;;17.26;74.28;98385.03;5112128;28;20055;-87
2021/07/04 02:43:36;;;;;;;0.77;0.77;;;;;;;17.02;74.89;98365.72;5112260;28;20028;-87
2021/07/04 02:46:02;;;;;;;0.73;0.73;;;;;;;17.21;75.07;98401.72;5115630;28;20547;-89
2021/07/04 02:48:27;;;;;;;0.45;0.45;;;;;;;17.24;74.59;98404.31;5115816;28;20119;-88
2021/07/04 02:50:53;;;;;;;1.30;1.27;;;;;;;17.29;74.88;98400.06;5115878;28;20027;-88
2021/07/04 02:53:19;;;;;;;0.38;0.38;;;;;;;17.35;75.05;98384.16;5116371;28;20050;-88
2021/07/04 02:55:44;;;;;;;0.63;0.63;;;;;;;17.42;73.93;98389.31;5115546;28;20027;-88
2021/07/04 02:58:10;;;;;;;0.85;0.85;;;;;;;17.50;73.27;98395.97;5115188;28;20027;-89
2021/07/04 03:00:37;;;;;;;0.28;0.28;;;;;;;17.57;73.45;98406.72;5115914;28;20024;-88
2021/07/04 03:03:02;;;;;;;0.52;0.52;;;;;;;17.42;73.16;98366.97;5116485;28;20387;-88
2021/07/04 03:05:28;;;;;;;1.20;0.90;;;;;;;17.71;73.52;98400.31;5116644;28;20015;-88
2021/07/04 03:07:53;;;;;;;0.50;0.50;;;;;;;17.70;72.60;98387.59;5115527;28;20038;-88
2021/07/04 03:10:21;;;;;;;0.32;0.32;;;;;;;17.76;73.02;98396.81;5114965;28;20119;-88
2021/07/04 03:12:47;;;;;;;0.32;0.28;;;;;;;17.85;72.27;98393.06;5115170;28;20114;-89
2021/07/04 03:15:13;;;;;;;0.38;0.38;;;;;;;17.81;72.95;98382.13;5115548;28;20443;-89
2021/07/04 03:17:39;;;;;;;2.72;1.00;;;;;;;17.62;72.85;98360.59;5114998;28;20039;-88
2021/07/04 03:20:07;;;;;;;0.47;0.47;;;;;;;17.85;72.58;98385.47;5114989;28;20172;-87
2021/07/04 03:22:32;;;;;;;1.10;1.00;;;;;;;17.92;71.35;98383.50;5115075;28;20084;-88
2021/07/04 03:24:58;;;;;;;1.95;1.23;;;;;;;18.30;71.36;98428.59;5115430;28;20386;-87
2021/07/04 03:27:23;;;;;;;0.35;0.35;;;;;;;18.33;70.86;98415.63;5116121;28;20031;-88
2021/07/04 03:29:49;;;;;;;0.45;0.40;;;;;;;18.50;69.98;98424.19;5114940;28;20391;-88
2021/07/04 03:32:14;;;;;;;0.60;0.60;;;;;;;18.44;69.02;98398.19;5114807;28;20128;-87
2021/07/04 03:34:40;;;;;;;0.55;0.55;;;;;;;18.91;67.44;98447.91;5114721;28;20410;-87
2021/07/04 03:37:05;;;;;;;0.20;0.20;;;;;;;18.99;66.94;98423.75;5114426;28;20048;-88
2021/07/04 03:39:31;;;;;;;0.40;0.40;;;;;;;19.39;66.52;98450.72;5114866;28;20023;-89
2021/07/04 03:41:56;;;;;;;0.32;0.32;;;;;;;19.49;65.18;98424.03;5114826;28;20027;-89
2021/07/04 03:44:22;;;;;;;0.52;0.52;;;;;;;19.46;64.75;98413.84;5114567;28;20498;-88
2021/07/04 03:46:47;;;;;;;1.05;1.00;;;;;;;19.84;64.06;98434.06;5114611;28;20114;-88
2021/07/04 03:49:12;;;;;;;0.20;0.20;;;;;;;20.04;64.16;98433.88;5114391;28;20119;-89
2021/07/04 03:51:38;;;;;;;0.20;0.20;;;;;;;20.03;63.07;98412.72;5115123;28;20066;-89
2021/07/04 03:54:04;;;;;;;0.20;0.20;;;;;;;20.81;61.42;98463.28;5115258;28;20024;-88
2021/07/04 03:56:29;;;;;;;0.68;0.68;;;;;;;20.71;61.28;98417.84;5114266;28;20043;-88
2021/07/04 03:58:55;;;;;;;0.55;0.55;;;;;;;21.20;61.50;98480.09;5115222;28;20065;-89
2021/07/04 04:01:21;;;;;;;0.57;0.52;;;;;;;21.10;60.19;98445.84;5114249;28;20061;-88
2021/07/04 04:03:50;;;;;;;0.38;0.38;;;;;;;21.26;59.10;98457.59;5114351;28;20030;-88
2021/07/04 04:06:16;;;;;;;0.40;0.40;;;;;;;21.43;57.88;98422.53;5113956;28;20126;-87
2021/07/04 04:08:43;;;;;;;0.40;0.40;;;;;;;22.01;57.14;98472.41;5114442;28;20081;-86
2021/07/04 04:11:10;;;;;;;0.30;0.30;;;;;;;22.02;56.04;98429.69;5113645;28;20059;-86
2021/07/04 04:13:35;;;;;;;0.38;0.38;;;;;;;22.28;55.32;98413.13;5113615;28;20031;-87
2021/07/04 04:16:01;;;;;;;0.30;0.30;;;;;;;22.57;55.20;98427.75;5113803;28;20080;-86
2021/07/04 04:18:27;;;;;;;0.28;0.28;;;;;;;23.34;54.37;98471.31;5113941;28;20028;-87
2021/07/04 04:20:52;;;;;;;1.95;1.30;;;;;;;23.08;52.90;98420.38;5113561;28;20028;-87
2021/07/04 04:23:18;;;;;;;0.32;0.32;;;;;;;23.36;52.48;98467.97;5113671;28;20478;-86
2021/07/04 04:25:43;;;;;;;1.52;0.50;;;;;;;24.12;51.09;98469.59;5114368;28;20490;-85
2021/07/04 04:28:09;;;;;;;0.28;0.28;;;;;;;24.42;49.37;98487.16;5113413;28;20031;-85
2021/07/04 04:30:38;;;;;;;0.70;0.70;;;;;;;24.18;50.22;98436.41;5114233;28;20185;-85
2021/07/04 04:33:03;;;;;;;0.35;0.35;;;;;;;24.68;49.75;98444.88;5113290;28;20084;-86
2021/07/04 04:35:29;;;;;;;0.52;0.52;;;;;;;25.01;49.73;98435.09;5113261;28;20035;-85
2021/07/04 04:37:56;;;;;;;0.63;0.63;;;;;;;25.42;48.62;98445.13;5112976;28;20047;-87
2021/07/04 04:40:23;;;;;;;1.70;0.73;;;;;;;25.76;46.67;98456.53;5113304;28;20023;-85
2021/07/04 04:42:48;;;;;;;0.13;0.13;;;;;;;26.60;44.72;98430.66;5114035;28;20027;-83
2021/07/04 04:45:14;;;;;;;0.75;0.45;;;;;;;27.93;43.44;98466.03;5114053;28;20024;-85
2021/07/04 04:47:40;;;;;;;0.15;0.15;;;;;;;28.63;40.60;98459.25;5114521;28;20058;-85
2021/07/04 04:50:06;;;;;;;0.32;0.32;;;;;;;28.22;41.14;98461.03;5111614;28;20039;-84
2021/07/04 04:52:32;;;;;;;0.28;0.28;;;;;;;29.45;39.80;98465.50;5110725;28;20065;-84
2021/07/04 04:54:57;;;;;;;0.40;0.30;;;;;;;30.02;37.01;98403.03;5111006;28;20055;-85
2021/07/04 04:57:23;;;;;;;0.22;0.22;;;;;;;30.36;36.42;98450.94;5111022;28;20492;-85
2021/07/04 04:59:48;;;;;;;0.40;0.40;;;;;;;30.51;35.02;98462.25;5111304;28;20490;-85
2021/07/04 05:02:13;;;;;;;0.20;0.20;;;;;;;30.90;37.28;98472.06;5111362;28;20033;-87
2021/07/04 05:04:39;;;;;;;0.10;0.10;;;;;;;31.46;35.30;98469.69;5111723;28;20029;-88
2021/07/04 05:07:04;;;;;;;0.47;0.38;;;;;;;31.76;35.21;98486.53;5112519;28;20034;-88
2021/07/04 05:09:30;;;;;;;0.47;0.47;;;;;;;32.68;32.92;98474.69;5112804;28;20114;-86
2021/07/04 05:11:55;;;;;;;0.30;0.28;;;;;;;33.39;31.51;98478.13;5112684;28;20444;-86
2021/07/04 05:14:21;;;;;;;0.57;0.52;;;;;;;34.75;29.80;98484.56;5112296;28;20048;-86
2021/07/04 05:16:46;;;;;;;0.30;0.28;;;;;;;35.24;28.87;98448.53;5112233;28;20027;-86
2021/07/04 05:19:12;;;;;;;0.73;0.73;;;;;;;36.73;26.45;98482.81;5112442;28;20475;-86
2021/07/04 05:21:39;;;;;;;0.20;0.20;;;;;;;37.19;25.93;98474.25;5112184;28;20027;-86
2021/07/04 05:24:06;;;;;;;0.30;0.30;;;;;;;37.34;25.94;98450.66;5112427;28;20038;-85
2021/07/04 05:26:32;;;;;;;;;;;;;;;37.57;25.49;98483.69;5112724;28;20050;-86
2021/07/04 05:28:58;;;;;;;0.20;0.20;;;;;;;37.49;25.17;98460.91;5113204;28;20410;-86
2021/07/04 05:31:25;;;;;;;0.35;0.28;;;;;;;37.77;24.92;98491.44;5112997;28;20383;-87
2021/07/04 05:33:51;;;;;;;0.47;0.47;;;;;;;37.40;24.89;98473.31;5112454;28;20126;-85
2021/07/04 05:36:16;;;;;;;0.60;0.60;;;;;;;36.59;25.49;98491.31;5111447;28;20048;-85
2021/07/04 05:38:43;;;;;;;0.13;0.13;;;;;;;35.44;26.65;98470.03;5111045;28;20023;-83
2021/07/04 05:41:15;;;;;;;0.25;0.25;;;;;;;35.32;25.95;98449.84;5112475;28;20410;-86
2021/07/04 05:43:43;;;;;;;0.30;0.30;;;;;;;34.85;27.88;98436.47;5112224;28;20023;-83
2021/07/04 05:46:09;;;;;;;0.20;0.20;;;;;;;34.48;27.40;98476.91;5112440;28;20028;-83
2021/07/04 05:48:37;;;;;;;0.40;0.40;;;;;;;35.05;27.88;98478.84;5111591;28;20027;-84
2021/07/04 05:51:02;;;;;;;;;;;;;;;34.95;26.67;98478.13;5112599;28;20118;-86
2021/07/04 05:53:28;;;;;;;0.30;0.20;;;;;;;34.40;27.88;98469.84;5111966;28;20430;-86
2021/07/04 05:55:54;;;;;;;0.30;0.30;;;;;;;33.87;28.03;98481.06;5111918;28;20027;-85
2021/07/04 05:58:19;;;;;;;0.30;0.30;;;;;;;33.78;29.06;98450.28;5111620;28;20024;-87
2021/07/04 06:00:45;;;;;;;0.17;0.15;;;;;;;33.87;28.32;98443.03;5112802;28;20031;-87
2021/07/04 06:03:10;;;;;;;0.30;0.30;;;;;;;34.52;28.18;98462.09;5111333;28;20028;-87
2021/07/04 06:05:36;;;;;;;0.28;0.28;;;;;;;34.58;27.83;98482.63;5111766;28;20024;-86
2021/07/04 06:08:02;;;;;;;4.85;0.25;;;;;;;34.39;28.57;98443.25;5113036;28;20031;-87
2021/07/04 06:10:27;;;;;;;1.15;0.47;;;;;;;33.86;28.86;98447.25;5111407;28;20020;-86
2021/07/04 06:12:53;;;;;;;0.50;0.50;;;;;;;34.14;27.67;98451.44;5111358;28;20077;-85
2021/07/04 06:15:19;;;;;;;0.32;0.32;;;;;;;34.04;28.32;98465.81;5111596;28;20024;-85
2021/07/04 06:17:45;;;;;;;0.38;0.38;;;;;;;34.28;27.76;98447.53;5111222;28;20084;-85
2021/07/04 06:20:13;;;;;;;0.25;0.25;;;;;;;34.81;29.29;98436.19;5115888;28;20073;-85
2021/07/04 06:22:39;;;;;;;0.20;0.20;;;;;;;34.23;27.82;98439.25;5114749;28;20023;-80
2021/07/04 06:25:08;;;;;;;1.75;0.20;;;;;;;34.58;28.16;98448.94;5116137;28;20104;-83
2021/07/04 06:27:34;;;;;;;0.63;0.63;;;;;;;34.46;28.51;98441.59;5115915;28;20024;-82
2021/07/04 06:30:02;;;;;;;0.70;0.70;;;;;;;34.08;27.59;98442.41;5115106;28;20020;-81
2021/07/04 06:32:27;;;;;;;0.32;0.22;;;;;;;34.21;28.62;98441.97;5115116;28;20034;-81
2021/07/04 06:34:53;;;;;;;0.28;0.20;;;;;;;33.96;29.44;98448.00;5113809;28;20426;-82
2021/07/04 06:37:18;;;;;;;0.93;0.93;;;;;;;35.32;28.15;98426.09;5114197;28;20063;-82
2021/07/04 06:39:44;;;;;;;0.57;0.52;;;;;;;36.12;26.61;98430.72;5114550;28;20024;-83
2021/07/04 06:42:10;;;;;;;1.08;0.98;;;;;;;36.05;25.93;98440.31;5114295;28;20031;-82
2021/07/04 06:44:37;;;;;;;26.77;0.82;;;;;;;36.05;26.18;98448.22;5114698;28;20216;-82
2021/07/04 06:47:03;;;;;;;0.40;0.35;;;;;;;36.10;24.55;98444.25;5114847;28;20187;-82
2021/07/04 06:49:28;;;;;;;0.30;0.30;;;;;;;36.09;25.87;98431.97;5114650;28;20039;-81
2021/07/04 06:51:54;;;;;;;0.40;0.40;;;;;;;36.22;24.41;98434.28;5114770;28;20039;-82
2021/07/04 06:54:19;;;;;;;0.55;0.38;;;;;;;36.52;24.84;98437.59;5114637;28;20028;-82
2021/07/04 06:56:45;;;;;;;0.80;0.80;;;;;;;36.63;25.88;98426.13;5114622;28;20043;-82
2021/07/04 06:59:10;;;;;;;0.25;0.25;;;;;;;36.42;23.91;98411.03;5114598;28;20478;-81
2021/07/04 07:01:36;;;;;;;0.30;0.30;;;;;;;37.05;23.37;98419.34;5114227;28;20088;-81
2021/07/04 07:04:01;;;;;;;0.32;0.32;;;;;;;37.15;24.00;98406.94;5114824;28;20505;-82
2021/07/04 07:06:27;;;;;;;0.40;0.40;;;;;;;36.34;25.42;98427.81;5114319;28;20023;-82
2021/07/04 07:08:52;;;;;;;0.93;0.93;;;;;;;36.79;24.21;98411.22;5114431;28;20471;-82
2021/07/04 07:11:18;;;;;;;0.20;0.20;;;;;;;36.53;24.43;98421.84;5114382;28;20122;-82
2021/07/04 07:13:43;;;;;;;0.63;0.63;;;;;;;37.67;22.47;98418.00;5114256;28;20475;-82
2021/07/04 07:16:09;;;;;;;0.13;0.13;;;;;;;36.34;24.78;98410.53;5114144;28;20024;-82
2021/07/04 07:18:35;;;;;;;1.00;0.52;;;;;;;36.17;25.29;98412.38;5114128;28;20063;-82
2021/07/04 07:21:01;;;;;;;0.20;0.20;;;;;;;36.54;24.79;98418.31;5114093;28;20020;-82
2021/07/04 07:23:26;;;;;;;0.50;0.50;;;;;;;36.49;25.09;98410.06;5114198;28;20048;-82
2021/07/04 07:25:53;;;;;;;0.50;0.50;;;;;;;36.54;24.06;98415.44;5114104;28;20061;-82
2021/07/04 07:28:19;;;;;;;0.70;0.70;;;;;;;37.05;23.29;98375.38;5115812;28;20020;-82
2021/07/04 07:30:45;;;;;;;0.40;0.35;;;;;;;36.98;23.40;98399.44;5113576;28;20032;-81
2021/07/04 07:33:10;;;;;;;6.85;0.63;;;;;;;36.53;23.99;98404.56;5113885;28;20027;-82
2021/07/04 07:35:36;;;;;;;2.92;0.70;;;;;;;35.78;24.99;98388.22;5113686;28;20050;-80
2021/07/04 07:38:03;;;;;;;0.40;0.40;;;;;;;36.24;23.43;98382.63;5113644;28;20044;-83
2021/07/04 07:40:34;;;;;;;0.00;0.00;;;;;;;36.33;25.30;98388.88;5113672;28;20024;-82
2021/07/04 07:43:00;;;;;;;0.57;0.57;;;;;;;36.70;24.35;98392.69;5113682;28;20123;-82
2021/07/04 07:45:25;;;;;;;0.20;0.20;;;;;;;36.64;24.19;98358.53;5113661;28;20077;-82
2021/07/04 07:47:51;;;;;;;0.68;0.45;;;;;;;36.92;23.45;98388.28;5113627;28;20032;-82
2021/07/04 07:50:16;;;;;;;0.10;0.10;;;;;;;37.39;24.02;98393.97;5113586;28;20471;-82
2021/07/04 07:52:42;;;;;;;0.93;0.68;;;;;;;38.41;22.56;98386.84;5113545;28;20025;-82
2021/07/04 07:55:08;;;;;;;1.95;0.77;;;;;;;37.17;23.11;98373.25;5113411;28;20030;-82
2021/07/04 07:57:33;;;;;;;2.30;0.70;;;;;;;35.34;23.94;98377.38;5112931;28;20035;-82
2021/07/04 07:59:59;;;;;;;0.68;0.50;;;;;;;32.96;26.31;98367.41;5113076;28;20028;-82
2021/07/04 08:02:24;;;;;;;2.25;0.60;;;;;;;32.81;29.56;98382.72;5113600;28;20035;-82
2021/07/04 08:04:50;;;;;;;0.70;0.63;;;;;;;32.38;28.75;98370.03;5113081;28;20028;-82
2021/07/04 08:07:15;;;;;;;0.45;0.28;;;;;;;32.02;32.37;98376.44;5113374;28;20628;-82
2021/07/04 08:09:41;;;;;;;0.60;0.60;;;;;;;31.48;31.00;98359.22;5112614;28;20499;-82
2021/07/04 08:12:07;;;;;;;0.40;0.35;;;;;;;30.94;31.78;98337.53;5113524;28;20119;-81
2021/07/04 08:14:32;;;;;;;0.10;0.10;;;;;;;30.64;34.52;98365.00;5112882;28;20027;-82
2021/07/04 08:16:58;;;;;;;0.47;0.43;;;;;;;30.79;33.99;98352.72;5112773;28;20076;-83
2021/07/04 08:19:23;;;;;;;0.57;0.57;;;;;;;30.49;32.82;98341.56;5113226;28;20028;-82
2021/07/04 08:21:49;;;;;;;0.38;0.22;;;;;;;30.77;34.27;98349.69;5113184;28;20032;-82
2021/07/04 08:24:14;;;;;;;0.98;0.73;;;;;;;30.92;34.98;98343.09;5112687;28;20114;-82
2021/07/04 08:26:40;;;;;;;0.45;0.45;;;;;;;31.07;36.57;98345.81;5112243;28;20028;-84
2021/07/04 08:29:06;;;;;;;0.47;0.47;;;;;;;31.28;31.91;98351.88;5111981;28;20027;-82
2021/07/04 08:31:31;;;;;;;0.40;0.40;;;;;;;30.49;32.91;98328.06;5112419;28;20503;-82
2021/07/04 08:33:57;;;;;;;0.35;0.35;;;;;;;30.21;34.46;98346.31;5112412;28;20387;-82
2021/07/04 08:36:25;;;;;;;1.17;1.05;;;;;;;30.29;35.64;98341.31;5112581;28;20495;-82
2021/07/04 08:38:51;;;;;;;1.10;0.70;;;;;;;29.44;32.09;98322.41;5112690;28;20036;-81
2021/07/04 08:41:17;;;;;;;0.43;0.43;;;;;;;28.59;33.68;98336.59;5112121;28;20024;-82
2021/07/04 08:43:42;;;;;;;0.20;0.20;;;;;;;28.72;33.54;98333.56;5112397;28;20479;-82
2021/07/04 08:46:09;;;;;;;0.38;0.32;;;;;;;29.03;37.60;98329.34;5112710;28;20031;-83
2021/07/04 08:48:37;;;;;;;0.20;0.20;;;;;;;28.60;34.02;98264.97;5112756;28;20087;-81
2021/07/04 08:51:04;;;;;;;0.57;0.57;;;;;;;28.63;33.76;98320.66;5112393;28;20114;-82
2021/07/04 08:53:30;;;;;;;13.60;0.73;;;;;;;28.56;34.04;98318.59;5112443;28;20479;-83
2021/07/04 08:55:56;;;;;;;0.20;0.20;;;;;;;28.51;31.88;98307.44;5112225;28;20049;-82
2021/07/04 08:58:24;;;;;;;0.15;0.15;;;;;;;28.31;34.21;98329.03;5113408;28;20110;-82
2021/07/04 09:01:08;;;;;;;0.80;0.80;;;;;;;28.10;34.77;98323.47;5112542;28;20035;-81
2021/07/04 09:03:34;;;;;;;0.40;0.40;;;;;;;28.01;35.37;98292.78;5113206;28;20487;-82
2021/07/04 09:06:00;;;;;;;0.30;0.30;;;;;;;28.50;33.74;98318.03;5112373;28;20015;-80
2021/07/04 09:08:25;;;;;;;0.80;0.68;;;;;;;28.15;33.75;98328.25;5112142;28;20030;-81
2021/07/04 09:11:17;;;;;;;0.10;0.10;;;;;;;28.56;35.67;98321.44;5112092;28;20034;-82
2021/07/04 09:13:47;;;;;;;0.30;0.30;;;;;;;28.97;34.14;98331.66;5112071;28;20019;-82
2021/07/04 09:16:16;;;;;;;0.60;0.60;;;;;;;28.97;33.28;98291.81;5111917;28;20027;-82
2021/07/04 09:18:42;;;;;;;1.90;0.30;;;;;;;29.05;35.55;98306.78;5113174;28;20027;-83
2021/07/04 09:21:24;;;;;;;0.20;0.20;;;;;;;28.85;31.30;98302.09;5111936;28;20084;-81
2021/07/04 09:23:51;;;;;;;0.30;0.30;;;;;;;28.81;32.14;98318.03;5111962;28;20150;-82
2021/07/04 09:26:37;;;;;;;3.87;0.70;;;;;;;28.61;32.17;98322.56;5111808;28;20487;-81
2021/07/04 09:29:02;;;;;;;1.23;0.43;;;;;;;28.34;34.36;98305.13;5111743;28;20096;-83
2021/07/04 09:31:30;;;;;;;0.25;0.25;;;;;;;28.32;32.47;98302.88;5111771;28;20479;-81
2021/07/04 09:34:11;;;;;;;0.20;0.20;;;;;;;27.93;34.33;98286.34;5111774;28;20024;-82
2021/07/04 09:36:39;;;;;;;0.40;0.40;;;;;;;28.41;35.09;98303.63;5111671;28;20100;-82
2021/07/04 09:39:21;;;;;;;0.43;0.43;;;;;;;28.61;32.32;98282.78;5111930;28;20483;-82
2021/07/04 09:42:11;;;;;;;1.55;0.98;;;;;;;28.85;35.96;98279.34;5111734;28;20070;-82
2021/07/04 09:44:38;;;;;;;1.02;0.88;;;;;;;29.26;36.26;98295.13;5111761;28;20035;-82
2021/07/04 09:47:10;;;;;;;0.73;0.73;;;;;;;29.69;33.95;98287.56;5111935;28;20124;-82
2021/07/04 09:49:35;;;;;;;0.60;0.60;;;;;;;29.87;35.46;98284.22;5111769;28;20036;-82
2021/07/04 09:52:15;;;;;;;0.88;0.88;;;;;;;29.98;33.08;98290.81;5111603;28;20042;-82
2021/07/04 09:55:01;;;;;;;0.65;0.63;;;;;;;30.11;33.42;98277.03;5116077;28;20120;-82
2021/07/04 09:57:28;;;;;;;0.10;0.10;;;;;;;30.05;33.00;98270.81;5115675;28;20042;-82
2021/07/04 10:00:14;;;;;;;0.73;0.40;;;;;;;30.26;31.05;98279.03;5115700;28;20038;-82
2021/07/04 10:02:40;;;;;;;0.50;0.50;;;;;;;30.17;32.73;98256.84;5115242;28;20034;-81
2021/07/04 10:05:14;;;;;;;1.08;0.77;;;;;;;30.38;31.88;98259.34;5116176;28;20135;-83
2021/07/04 10:07:39;;;;;;;0.20;0.20;;;;;;;30.49;32.59;98279.59;5115614;28;20059;-82
2021/07/04 10:10:05;;;;;;;1.98;0.52;;;;;;;30.47;32.76;98276.53;5115572;28;20517;-82
2021/07/04 10:12:30;;;;;;;0.50;0.50;;;;;;;30.29;31.43;98277.84;5115571;28;20534;-82
2021/07/04 10:14:56;;;;;;;0.55;0.30;;;;;;;30.54;32.42;98278.59;5115627;28;20031;-82
2021/07/04 10:17:27;;;;;;;2.88;0.40;;;;;;;30.61;32.70;98252.13;5115329;28;20035;-82
2021/07/04 10:19:53;;;;;;;0.75;0.45;;;;;;;30.76;31.91;98251.19;5115436;28;20506;-83
2021/07/04 10:22:20;;;;;;;0.25;0.25;;;;;;;30.77;32.26;98234.81;5115329;28;20024;-82
2021/07/04 10:24:47;;;;;;;0.33;0.33;;;;;;;30.74;32.17;98248.91;5115379;28;20637;-82
2021/07/04 10:27:13;;;;;;;0.00;0.00;;;;;;;30.95;32.33;98244.88;5115306;28;20035;-82
2021/07/04 10:29:40;;;;;;;1.40;0.93;;;;;;;31.00;30.99;98241.78;5115281;28;20055;-82
2021/07/04 10:32:09;;;;;;;0.20;0.20;;;;;;;31.03;32.04;98222.72;5115380;28;20402;-82
2021/07/04 10:34:45;;;;;;;0.13;0.13;;;;;;;31.35;28.69;98213.94;5115179;28;20640;-82
2021/07/04 10:37:12;;;;;;;0.52;0.52;;;;;;;30.53;29.55;98200.09;5114285;28;20043;-81
2021/07/04 10:39:38;;;;;;;7.30;1.65;;;;;;;29.98;30.89;98217.50;5114642;28;20126;-78
2021/07/04 10:42:07;;;;;;;0.25;0.25;;;;;;;29.76;29.94;98222.00;5116219;28;20161;-78
2021/07/04 10:44:38;;;;;;;2.10;0.32;;;;;;;29.57;30.70;98221.75;5114797;28;20414;-78
2021/07/04 10:47:09;;;;;;;0.30;0.30;;;;;;;29.83;30.91;98215.50;5114630;28;20024;-79
2021/07/04 10:49:39;;;;;;;0.25;0.25;;;;;;;30.50;32.57;98220.47;5115149;28;20027;-80
2021/07/04 10:52:14;;;;;;;0.50;0.50;;;;;;;30.76;31.08;98199.06;5114522;28;20027;-80
2021/07/04 10:54:50;;;;;;;0.32;0.32;;;;;;;30.69;28.50;98190.03;5114425;28;20498;-80
2021/07/04 10:57:33;;;;;;;0.22;0.22;;;;;;;30.10;29.46;98209.22;5115716;28;20026;-80
2021/07/04 11:00:03;;;;;;;0.05;0.05;;;;;;;29.67;30.58;98184.84;5114617;28;20028;-80
2021/07/04 11:02:50;;;;;;;0.15;0.15;;;;;;;30.11;31.19;98207.88;5114497;28;20466;-80
2021/07/04 11:05:31;;;;;;;0.22;0.22;;;;;;;30.08;30.16;98203.38;5114348;28;20031;-80
2021/07/04 11:07:57;;;;;;;0.20;0.20;;;;;;;30.27;31.11;98169.34;5115619;28;20152;-80
2021/07/04 11:10:28;;;;;;;0.32;0.32;;;;;;;30.57;33.26;98176.84;5114274;28;20402;-80
2021/07/04 11:13:16;;;;;;;3.63;0.80;;;;;;;30.65;29.85;98181.13;5113976;28;20024;-80
2021/07/04 11:15:44;;;;;;;0.52;0.50;;;;;;;30.71;30.58;98183.72;5113752;28;20115;-81
2021/07/04 11:18:14;;;;;;;0.20;0.20;;;;;;;30.32;29.39;98185.47;5114060;28;20032;-82
2021/07/04 11:20:44;;;;;;;0.15;0.15;;;;;;;30.69;28.41;98192.13;5110153;28;20071;-83
2021/07/04 11:23:25;;;;;;;0.10;0.10;;;;;;;30.82;28.49;98165.34;5112756;28;20066;-81
2021/07/04 11:25:53;;;;;;;0.73;0.47;;;;;;;31.04;28.18;98193.63;5112269;28;20566;-82
2021/07/04 11:28:19;;;;;;;2.30;0.50;;;;;;;31.21;28.09;98181.44;5112426;28;20031;-81
2021/07/04 11:31:05;;;;;;;0.15;0.15;;;;;;;31.07;28.77;98161.06;5113010;28;20028;-81
2021/07/04 11:33:55;;;;;;;0.30;0.30;;;;;;;30.90;28.16;98151.75;5114847;28;20026;-82
2021/07/04 11:36:28;;;;;;;0.55;0.55;;;;;;;30.69;27.71;98181.47;5113651;28;20082;-82